createdAt,value
2023-04-18T00:00:21.546Z,83.03
2023-04-18T00:02:51.262Z,103.55
2023-04-18T00:05:19.213Z,89.10
2023-04-18T00:07:48.562Z,96.13
2023-04-18T00:10:16.351Z,91.55
2023-04-18T00:12:44.108Z,90.25
2023-04-18T00:15:12.783Z,113.20
2023-04-18T00:17:40.961Z,93.50
2023-04-18T00:20:10.683Z,107.72
2023-04-18T00:22:42.755Z,101.85
2023-04-18T00:25:12.173Z,114.80
2023-04-18T00:27:39.912Z,112.05
2023-04-18T00:30:08.437Z,108.03
2023-04-18T00:32:36.525Z,106.05
2023-04-18T00:35:04.450Z,106.35
2023-04-18T00:37:32.254Z,109.30
2023-04-18T00:39:59.894Z,117.82
2023-04-18T00:42:29.464Z,113.70
2023-04-18T00:44:57.164Z,100.90
2023-04-18T00:47:24.874Z,126.30
2023-04-18T00:49:52.671Z,107.82
2023-04-18T00:52:20.686Z,121.63
2023-04-18T00:54:48.412Z,110.53
2023-04-18T00:57:16.150Z,117.65
2023-04-18T00:59:45.171Z,116.20
2023-04-18T01:02:12.884Z,120.47
2023-04-18T01:04:40.601Z,114.88
2023-04-18T01:07:08.507Z,113.75
2023-04-18T01:09:36.254Z,106.03
2023-04-18T01:12:04.256Z,99.03
2023-04-18T01:14:31.940Z,108.28
2023-04-18T01:17:01.516Z,118.38
2023-04-18T01:19:29.951Z,118.75
2023-04-18T01:21:57.732Z,124.65
2023-04-18T01:24:29.777Z,121.57
2023-04-18T01:26:57.472Z,110.45
2023-04-18T01:29:25.197Z,104.28
2023-04-18T01:31:52.964Z,117.00
2023-04-18T01:34:20.648Z,115.47
2023-04-18T01:36:48.386Z,113.43
2023-04-18T01:39:16.102Z,100.60
2023-04-18T01:41:45.153Z,103.60
2023-04-18T01:44:13.077Z,124.65
2023-04-18T01:46:42.118Z,99.22
2023-04-18T01:49:10.325Z,135.38
2023-04-18T01:51:38.880Z,113.68
2023-04-18T01:54:06.712Z,108.95
2023-04-18T01:56:34.926Z,106.75
2023-04-18T01:59:04.160Z,108.85
2023-04-18T02:01:31.845Z,109.55
2023-04-18T02:03:59.562Z,121.75
2023-04-18T02:06:27.488Z,106.22
2023-04-18T02:08:55.090Z,113.38
2023-04-18T02:11:22.730Z,115.40
2023-04-18T02:13:50.420Z,116.50
2023-04-18T02:16:19.570Z,104.32
2023-04-18T02:18:48.140Z,90.80
2023-04-18T02:21:15.919Z,107.60
2023-04-18T02:23:43.570Z,92.78
2023-04-18T02:26:11.377Z,110.57
2023-04-18T02:28:39.911Z,107.00
2023-04-18T02:31:14.486Z,105.85
2023-04-18T02:33:43.916Z,102.78
2023-04-18T02:36:11.611Z,108.68
2023-04-18T02:38:39.407Z,90.85
2023-04-18T02:41:07.090Z,88.20
2023-04-18T02:43:34.749Z,103.28
2023-04-18T02:46:02.422Z,91.38
2023-04-18T02:48:30.198Z,91.05
2023-04-18T02:51:04.402Z,97.22
2023-04-18T02:53:32.382Z,91.10
2023-04-18T02:56:00.138Z,112.80
2023-04-18T02:58:27.792Z,100.75
2023-04-18T03:00:55.999Z,92.47
2023-04-18T03:03:24.282Z,87.47
2023-04-18T03:05:52.088Z,91.97
2023-04-18T03:08:21.069Z,91.45
2023-04-18T03:10:48.902Z,92.97
2023-04-18T03:13:16.551Z,92.57
2023-04-18T03:15:44.299Z,101.53
2023-04-18T03:18:16.645Z,100.05
2023-04-18T03:20:44.298Z,87.57
2023-04-18T03:23:11.948Z,92.93
2023-04-18T03:25:41.368Z,88.57
2023-04-18T03:28:08.970Z,88.65
2023-04-18T03:30:36.642Z,80.85
2023-04-18T03:33:05.230Z,94.15
2023-04-18T03:35:33.047Z,85.03
2023-04-18T03:38:00.685Z,95.80
2023-04-18T03:40:28.384Z,83.00
2023-04-18T03:42:57.376Z,77.65
2023-04-18T03:45:25.211Z,80.88
2023-04-18T03:47:52.891Z,78.10
2023-04-18T03:50:20.655Z,78.43
2023-04-18T03:52:49.304Z,72.30
2023-04-18T03:55:17.035Z,88.05
2023-04-18T03:57:45.630Z,82.18
2023-04-18T04:00:15.337Z,69.15
2023-04-18T04:02:43.134Z,76.15
2023-04-18T04:05:11.046Z,74.10
2023-04-18T04:07:38.803Z,86.20
2023-04-18T04:10:06.968Z,78.63
2023-04-18T04:12:34.595Z,74.63
2023-04-18T04:15:02.368Z,76.32
2023-04-18T04:17:31.510Z,69.18
2023-04-18T04:19:59.280Z,74.85
2023-04-18T04:22:27.352Z,70.60
2023-04-18T04:24:58.717Z,75.25
2023-04-18T04:27:26.942Z,68.32
2023-04-18T04:29:56.520Z,78.30
2023-04-18T04:32:25.182Z,69.45
2023-04-18T04:34:56.296Z,63.53
2023-04-18T04:37:23.909Z,67.75
2023-04-18T04:39:52.404Z,65.75
2023-04-18T04:42:20.322Z,61.97
2023-04-18T04:44:48.044Z,57.72
2023-04-18T04:47:15.813Z,61.05
2023-04-18T04:49:44.249Z,62.80
2023-04-18T04:52:13.228Z,52.13
2023-04-18T04:54:40.854Z,62.05
2023-04-18T04:57:08.901Z,60.72
2023-04-18T04:59:36.651Z,55.90
2023-04-18T05:02:04.581Z,59.83
2023-04-18T05:04:39.329Z,48.00
2023-04-18T05:07:07.098Z,49.08
2023-04-18T05:09:36.121Z,45.25
2023-04-18T05:12:03.900Z,49.05
2023-04-18T05:14:31.839Z,54.85
2023-04-18T05:17:07.725Z,49.55
2023-04-18T05:19:36.673Z,56.17
2023-04-18T05:22:04.264Z,50.88
2023-04-18T05:24:32.615Z,51.38
2023-04-18T05:27:01.948Z,53.08
2023-04-18T05:29:29.655Z,51.08
2023-04-18T05:31:57.620Z,44.28
2023-04-18T05:34:25.351Z,43.53
2023-04-18T05:36:53.186Z,47.30
2023-04-18T05:39:20.814Z,49.92
2023-04-18T05:41:48.606Z,57.03
2023-04-18T05:44:18.194Z,46.13
2023-04-18T05:46:46.306Z,47.28
2023-04-18T05:49:14.055Z,44.45
2023-04-18T05:51:41.708Z,47.72
2023-04-18T05:54:09.396Z,40.10
2023-04-18T05:56:37.478Z,46.85
2023-04-18T05:59:05.261Z,43.50
2023-04-18T06:01:36.707Z,46.55
2023-04-18T06:04:04.444Z,51.83
2023-04-18T06:06:32.636Z,50.90
2023-04-18T06:09:00.365Z,43.10
2023-04-18T06:11:28.210Z,43.38
2023-04-18T06:13:56.176Z,38.60
2023-04-18T06:16:23.858Z,36.13
2023-04-18T06:18:52.902Z,35.97
2023-04-18T06:21:21.827Z,32.53
2023-04-18T06:23:49.424Z,36.08
2023-04-18T06:26:17.242Z,32.85
2023-04-18T06:28:44.829Z,35.10
2023-04-18T06:31:12.464Z,31.52
2023-04-18T06:33:40.541Z,34.78
2023-04-18T06:36:10.050Z,31.55
2023-04-18T06:38:37.792Z,32.50
2023-04-18T06:41:05.649Z,23.83
2023-04-18T06:43:33.308Z,21.50
2023-04-18T06:46:01.227Z,22.85
2023-04-18T06:48:28.978Z,24.98
2023-04-18T06:50:56.912Z,21.48
2023-04-18T06:53:29.092Z,19.65
2023-04-18T06:55:56.780Z,16.35
2023-04-18T06:58:24.446Z,17.70
2023-04-18T07:00:54.210Z,15.55
2023-04-18T07:03:22.092Z,16.63
2023-04-18T07:05:50.564Z,16.02
2023-04-18T07:08:18.209Z,17.02
2023-04-18T07:10:47.216Z,16.17
2023-04-18T07:13:15.483Z,14.55
2023-04-18T07:15:43.183Z,13.13
2023-04-18T07:18:11.840Z,14.38
2023-04-18T07:20:40.373Z,11.98
2023-04-18T07:23:08.132Z,11.52
2023-04-18T07:25:35.804Z,16.02
2023-04-18T07:28:04.808Z,17.35
2023-04-18T07:30:32.474Z,13.98
2023-04-18T07:33:01.935Z,16.15
2023-04-18T07:35:29.623Z,13.98
2023-04-18T07:38:01.192Z,14.70
2023-04-18T07:40:29.207Z,15.75
2023-04-18T07:42:56.879Z,13.43
2023-04-18T07:45:26.266Z,14.80
2023-04-18T07:47:53.996Z,17.27
2023-04-18T07:50:21.834Z,9.95
2023-04-18T07:52:49.602Z,14.40
2023-04-18T07:55:18.466Z,17.55
2023-04-18T07:57:50.210Z,15.50
2023-04-18T08:00:18.449Z,12.13
2023-04-18T08:02:47.629Z,12.25
2023-04-18T08:05:15.936Z,9.77
2023-04-18T08:07:44.077Z,12.70
2023-04-18T08:10:12.096Z,15.50
2023-04-18T08:12:39.824Z,17.13
2023-04-18T08:15:08.183Z,12.23
2023-04-18T08:17:36.083Z,12.95
2023-04-18T08:20:07.336Z,15.80
2023-04-18T08:22:35.395Z,10.52
2023-04-18T08:25:05.987Z,13.82
2023-04-18T08:27:33.981Z,14.35
2023-04-18T08:30:04.499Z,16.13
2023-04-18T08:32:32.451Z,12.93
2023-04-18T08:35:00.928Z,19.52
2023-04-18T08:37:30.500Z,16.52
2023-04-18T08:39:58.964Z,13.90
2023-04-18T08:42:26.866Z,12.43
2023-04-18T08:44:54.543Z,12.40
2023-04-18T08:47:25.775Z,13.70
2023-04-18T08:49:55.518Z,13.98
2023-04-18T08:52:24.090Z,12.88
2023-04-18T08:54:53.426Z,13.10
2023-04-18T08:57:26.780Z,15.60
2023-04-18T08:59:55.508Z,16.40
2023-04-18T09:02:24.016Z,18.02
2023-04-18T09:04:55.625Z,18.23
2023-04-18T09:07:29.722Z,18.30
2023-04-18T09:09:59.977Z,18.02
2023-04-18T09:12:28.285Z,16.23
2023-04-18T09:14:57.877Z,15.70
2023-04-18T09:17:36.117Z,16.92
2023-04-18T09:20:06.198Z,16.50
2023-04-18T09:22:46.269Z,17.35
2023-04-18T09:25:24.821Z,17.15
2023-04-18T09:27:52.521Z,15.93
2023-04-18T09:30:30.159Z,15.60
2023-04-18T09:32:59.421Z,14.80
2023-04-18T09:35:27.293Z,19.50
2023-04-18T09:37:54.954Z,20.33
2023-04-18T09:40:24.528Z,17.20
2023-04-18T09:42:53.607Z,19.98
2023-04-18T09:45:21.607Z,19.85
2023-04-18T09:47:49.358Z,20.98
2023-04-18T09:50:18.340Z,19.83
2023-04-18T09:52:46.565Z,22.13
2023-04-18T09:55:15.422Z,18.75
2023-04-18T09:57:45.836Z,21.42
2023-04-18T10:00:17.643Z,22.25
2023-04-18T10:02:48.788Z,22.77
2023-04-18T10:05:18.255Z,22.73
2023-04-18T10:07:49.068Z,20.00
2023-04-18T10:10:17.049Z,20.10
2023-04-18T10:12:47.987Z,18.65
2023-04-18T10:15:16.829Z,20.83
2023-04-18T10:17:56.191Z,19.30
2023-04-18T10:20:29.665Z,18.67
2023-04-18T10:22:57.907Z,20.08
2023-04-18T10:25:44.352Z,20.00
2023-04-18T10:28:13.352Z,18.02
2023-04-18T10:30:54.494Z,17.02
2023-04-18T10:33:30.539Z,17.60
2023-04-18T10:36:00.248Z,17.00
2023-04-18T10:38:28.153Z,19.05
2023-04-18T10:41:10.860Z,22.55
2023-04-18T10:43:53.499Z,16.17
2023-04-18T10:46:31.708Z,19.42
2023-04-18T10:49:13.729Z,15.38
2023-04-18T10:51:41.596Z,15.93
2023-04-18T10:54:10.689Z,18.30
2023-04-18T10:56:39.267Z,15.45
2023-04-18T10:59:07.521Z,18.70
2023-04-18T11:01:38.637Z,16.92
2023-04-18T11:04:12.512Z,17.20
2023-04-18T11:06:51.121Z,13.73
2023-04-18T11:09:18.793Z,16.55
2023-04-18T11:11:46.404Z,16.35
2023-04-18T11:14:14.364Z,14.23
2023-04-18T11:16:44.135Z,16.75
2023-04-18T11:19:23.363Z,15.90
2023-04-18T11:21:51.853Z,17.27
2023-04-18T11:24:25.472Z,14.27
2023-04-18T11:26:55.889Z,17.75
2023-04-18T11:29:23.972Z,20.60
2023-04-18T11:31:56.676Z,19.20
2023-04-18T11:34:29.514Z,18.40
2023-04-18T11:36:57.179Z,22.88
2023-04-18T11:39:26.066Z,16.52
2023-04-18T11:41:56.096Z,16.40
2023-04-18T11:44:24.583Z,19.95
2023-04-18T11:46:55.179Z,15.23
2023-04-18T11:49:26.815Z,16.95
2023-04-18T11:51:55.407Z,16.13
2023-04-18T11:54:42.233Z,16.27
2023-04-18T11:57:19.993Z,16.58
2023-04-18T11:59:49.690Z,14.75
2023-04-18T12:02:19.785Z,14.38
2023-04-18T12:04:52.034Z,19.42
2023-04-18T12:07:36.120Z,15.52
2023-04-18T12:10:04.167Z,19.67
2023-04-18T12:12:31.808Z,13.45
2023-04-18T12:15:00.547Z,13.48
2023-04-18T12:17:30.550Z,14.27
2023-04-18T12:20:02.194Z,13.57
2023-04-18T12:22:40.121Z,14.32
2023-04-18T12:25:20.186Z,15.00
2023-04-18T12:27:48.820Z,12.88
2023-04-18T12:30:16.803Z,15.68
2023-04-18T12:32:45.979Z,13.52
2023-04-18T12:35:14.150Z,14.23
2023-04-18T12:37:41.898Z,11.52
2023-04-18T12:40:10.973Z,12.77
2023-04-18T12:42:38.655Z,13.13
2023-04-18T12:45:07.737Z,11.77
2023-04-18T12:47:35.675Z,11.90
2023-04-18T12:50:04.922Z,12.40
2023-04-18T12:52:32.634Z,13.20
2023-04-18T12:55:00.303Z,15.27
2023-04-18T12:57:29.926Z,16.95
2023-04-18T12:59:58.957Z,17.85
2023-04-18T13:02:26.707Z,15.15
2023-04-18T13:04:55.209Z,12.35
2023-04-18T13:07:24.364Z,12.77
2023-04-18T13:09:52.049Z,13.00
2023-04-18T13:12:19.888Z,14.32
2023-04-18T13:14:47.591Z,13.27
2023-04-18T13:17:15.244Z,14.32
2023-04-18T13:19:43.743Z,14.82
2023-04-18T13:22:11.832Z,15.05
2023-04-18T13:24:40.859Z,13.77
2023-04-18T13:27:11.234Z,12.65
2023-04-18T13:29:40.018Z,12.52
2023-04-18T13:32:07.897Z,11.65
2023-04-18T13:34:36.378Z,13.68
2023-04-18T13:37:05.304Z,14.63
2023-04-18T13:39:33.690Z,15.20
2023-04-18T13:42:04.472Z,13.68
2023-04-18T13:44:32.341Z,15.30
2023-04-18T13:46:59.919Z,14.30
2023-04-18T13:49:27.733Z,18.02
2023-04-18T13:51:57.259Z,17.55
2023-04-18T13:54:26.887Z,20.02
2023-04-18T13:56:55.024Z,17.77
2023-04-18T13:59:25.970Z,17.70
2023-04-18T14:01:55.247Z,15.32
2023-04-18T14:04:23.595Z,15.45
2023-04-18T14:06:51.608Z,12.40
2023-04-18T14:09:19.374Z,12.70
2023-04-18T14:11:47.228Z,13.43
2023-04-18T14:14:15.133Z,10.93
2023-04-18T14:16:44.318Z,11.98
2023-04-18T14:19:12.037Z,12.20
2023-04-18T14:21:39.961Z,15.77
2023-04-18T14:24:08.036Z,11.10
2023-04-18T14:26:36.078Z,11.18
2023-04-18T14:29:04.383Z,10.43
2023-04-18T14:31:32.133Z,10.73
2023-04-18T14:34:01.814Z,11.93
2023-04-18T14:36:31.997Z,11.10
2023-04-18T14:39:00.533Z,11.95
2023-04-18T14:41:28.520Z,14.80
2023-04-18T14:43:59.709Z,10.35
2023-04-18T14:46:28.325Z,9.68
2023-04-18T14:48:56.108Z,10.43
2023-04-18T14:51:26.224Z,10.77
2023-04-18T14:53:53.981Z,10.15
2023-04-18T14:56:23.599Z,9.23
2023-04-18T14:58:51.333Z,9.70
2023-04-18T15:01:19.037Z,12.85
2023-04-18T15:03:46.907Z,9.23
2023-04-18T15:06:14.948Z,10.15
2023-04-18T15:08:44.402Z,9.02
2023-04-18T15:11:12.370Z,11.57
2023-04-18T15:13:40.084Z,10.25
2023-04-18T15:16:08.392Z,12.60
2023-04-18T15:18:36.248Z,11.05
2023-04-18T15:21:04.286Z,10.43
2023-04-18T15:23:32.107Z,11.43
2023-04-18T15:26:01.168Z,12.32
2023-04-18T15:28:29.058Z,14.45
2023-04-18T15:30:56.749Z,15.23
2023-04-18T15:33:25.324Z,14.85
2023-04-18T15:35:53.019Z,13.30
2023-04-18T15:38:20.723Z,13.40
2023-04-18T15:40:48.533Z,14.05
2023-04-18T15:43:17.874Z,11.82
2023-04-18T15:45:45.722Z,15.30
2023-04-18T15:48:13.698Z,16.42
2023-04-18T15:50:41.957Z,14.93
2023-04-18T15:53:09.684Z,11.70
2023-04-18T15:55:37.391Z,15.60
2023-04-18T15:58:05.098Z,12.55
2023-04-18T16:00:34.279Z,17.45
2023-04-18T16:03:02.127Z,18.48
2023-04-18T16:05:29.870Z,13.25
2023-04-18T16:07:58.775Z,13.88
2023-04-18T16:10:26.625Z,16.05
2023-04-18T16:12:54.653Z,13.82
2023-04-18T16:15:22.571Z,15.65
2023-04-18T16:17:51.682Z,14.75
2023-04-18T16:20:19.429Z,16.67
2023-04-18T16:22:47.098Z,16.20
2023-04-18T16:25:29.188Z,19.60
2023-04-18T16:27:56.848Z,15.70
2023-04-18T16:30:24.515Z,17.63
2023-04-18T16:32:54.342Z,16.85
2023-04-18T16:35:22.115Z,13.68
2023-04-18T16:37:50.062Z,16.65
2023-04-18T16:40:17.829Z,15.88
2023-04-18T16:42:45.919Z,13.10
2023-04-18T16:45:13.706Z,16.95
2023-04-18T16:47:41.357Z,20.30
2023-04-18T16:50:10.925Z,16.38
2023-04-18T16:52:38.655Z,15.43
2023-04-18T16:55:06.714Z,20.92
2023-04-18T16:57:34.500Z,17.88
2023-04-18T17:00:03.298Z,16.27
2023-04-18T17:02:31.337Z,19.08
2023-04-18T17:04:59.105Z,18.70
2023-04-18T17:07:28.203Z,33.53
2023-04-18T17:09:55.893Z,19.50
2023-04-18T17:12:23.783Z,15.52
2023-04-18T17:14:51.486Z,23.33
2023-04-18T17:17:19.103Z,22.38
2023-04-18T17:19:47.072Z,19.08
2023-04-18T17:22:15.525Z,19.05
2023-04-18T17:24:44.499Z,19.70
2023-04-18T17:27:12.589Z,18.83
2023-04-18T17:29:40.929Z,18.95
2023-04-18T17:32:08.708Z,17.88
2023-04-18T17:34:36.457Z,21.25
2023-04-18T17:37:05.386Z,18.92
2023-04-18T17:39:33.216Z,16.02
2023-04-18T17:42:02.296Z,16.48
2023-04-18T17:44:30.519Z,17.40
2023-04-18T17:46:58.830Z,17.30
2023-04-18T17:49:30.706Z,19.23
2023-04-18T17:51:58.551Z,20.70
2023-04-18T17:54:26.491Z,22.70
2023-04-18T17:56:54.113Z,21.65
2023-04-18T17:59:23.120Z,18.63
2023-04-18T18:02:00.030Z,24.13
2023-04-18T18:04:28.020Z,25.52
2023-04-18T18:06:55.997Z,22.80
2023-04-18T18:09:23.720Z,21.27
2023-04-18T18:11:53.398Z,18.67
2023-04-18T18:14:23.752Z,23.50
2023-04-18T18:16:51.515Z,24.63
2023-04-18T18:19:20.480Z,26.80
2023-04-18T18:21:53.630Z,26.95
2023-04-18T18:24:22.383Z,23.60
2023-04-18T18:26:51.558Z,25.23
2023-04-18T18:29:21.447Z,27.30
2023-04-18T18:31:50.539Z,26.63
2023-04-18T18:34:19.903Z,24.40
2023-04-18T18:36:47.655Z,26.40
2023-04-18T18:39:17.706Z,28.67
2023-04-18T18:41:46.011Z,27.63
2023-04-18T18:44:13.746Z,30.45
2023-04-18T18:46:43.062Z,32.38
2023-04-18T18:49:12.746Z,29.23
2023-04-18T18:51:40.995Z,29.60
2023-04-18T18:54:08.623Z,29.83
2023-04-18T18:56:38.827Z,34.75
2023-04-18T18:59:06.639Z,26.92
2023-04-18T19:01:34.320Z,28.73
2023-04-18T19:04:02.645Z,31.13
2023-04-18T19:06:32.172Z,35.45
2023-04-18T19:08:59.883Z,29.10
2023-04-18T19:11:27.954Z,30.83
2023-04-18T19:13:55.793Z,30.83
2023-04-18T19:16:23.568Z,26.52
2023-04-18T19:18:51.358Z,30.77
2023-04-18T19:21:20.425Z,27.58
2023-04-18T19:23:49.672Z,32.33
2023-04-18T19:26:18.761Z,32.05
2023-04-18T19:28:46.452Z,28.60
2023-04-18T19:31:14.139Z,29.88
2023-04-18T19:33:41.813Z,36.03
2023-04-18T19:36:09.494Z,31.27
2023-04-18T19:38:37.432Z,34.72
2023-04-18T19:41:06.568Z,33.03
2023-04-18T19:43:34.740Z,33.17
2023-04-18T19:46:10.281Z,31.17
2023-04-18T19:48:38.249Z,35.80
2023-04-18T19:51:06.310Z,28.00
2023-04-18T19:53:33.925Z,32.15
2023-04-18T19:56:03.584Z,31.95
2023-04-18T19:58:36.088Z,28.55
2023-04-18T20:01:06.002Z,31.70
2023-04-18T20:03:34.605Z,32.13
2023-04-18T20:06:03.578Z,32.33
2023-04-18T20:08:31.601Z,30.42
2023-04-18T20:10:59.270Z,27.63
2023-04-18T20:13:26.904Z,29.05
2023-04-18T20:15:56.293Z,28.27
2023-04-18T20:18:25.193Z,28.10
2023-04-18T20:20:53.124Z,28.17
2023-04-18T20:23:22.077Z,31.35
2023-04-18T20:25:49.747Z,30.05
2023-04-18T20:28:17.434Z,31.13
2023-04-18T20:30:45.922Z,29.25
2023-04-18T20:33:17.393Z,29.70
2023-04-18T20:35:46.739Z,26.98
2023-04-18T20:38:14.873Z,22.38
2023-04-18T20:40:45.062Z,30.08
2023-04-18T20:43:13.606Z,27.20
2023-04-18T20:45:42.881Z,26.88
2023-04-18T20:48:10.771Z,31.77
2023-04-18T20:50:41.036Z,26.50
2023-04-18T20:53:08.684Z,27.42
2023-04-18T20:55:36.532Z,29.00
2023-04-18T20:58:04.181Z,31.75
2023-04-18T21:00:32.137Z,29.67
2023-04-18T21:02:59.940Z,26.20
2023-04-18T21:05:27.650Z,28.15
2023-04-18T21:07:56.641Z,28.20
2023-04-18T21:10:24.829Z,24.40
2023-04-18T21:12:52.564Z,25.40
2023-04-18T21:15:20.310Z,28.33
2023-04-18T21:17:48.118Z,31.50
2023-04-18T21:20:15.904Z,23.60
2023-04-18T21:22:44.674Z,25.50
2023-04-18T21:25:13.906Z,24.60
2023-04-18T21:27:41.491Z,27.20
2023-04-18T21:30:09.487Z,23.60
2023-04-18T21:32:37.183Z,29.00
2023-04-18T21:35:04.927Z,25.83
2023-04-18T21:37:32.689Z,26.90
2023-04-18T21:40:02.676Z,25.60
2023-04-18T21:42:31.692Z,31.40
2023-04-18T21:44:59.324Z,30.00
2023-04-18T21:47:27.047Z,25.58
2023-04-18T21:49:55.752Z,24.40
2023-04-18T21:52:23.391Z,35.35
2023-04-18T21:54:51.184Z,24.52
2023-04-18T21:57:18.949Z,25.30
2023-04-18T21:59:48.010Z,25.13
2023-04-18T22:02:17.361Z,29.50
2023-04-18T22:04:45.100Z,31.23
2023-04-18T22:07:14.496Z,25.70
2023-04-18T22:09:42.176Z,27.13
2023-04-18T22:12:09.806Z,24.30
2023-04-18T22:14:37.412Z,31.10
2023-04-18T22:17:06.402Z,25.55
2023-04-18T22:19:35.877Z,27.38
2023-04-18T22:22:03.630Z,31.77
2023-04-18T22:24:31.311Z,36.47
2023-04-18T22:26:58.923Z,27.92
2023-04-18T22:29:26.579Z,30.00
2023-04-18T22:31:55.134Z,31.67
2023-04-18T22:34:24.177Z,32.03
2023-04-18T22:36:51.788Z,26.38
2023-04-18T22:39:19.427Z,26.35
2023-04-18T22:41:47.138Z,30.55
2023-04-18T22:44:15.037Z,31.77
2023-04-18T22:46:43.184Z,25.60
2023-04-18T22:49:12.015Z,29.05
2023-04-18T22:51:42.265Z,26.00
2023-04-18T22:54:09.908Z,25.63
2023-04-18T22:56:37.484Z,29.60
2023-04-18T22:59:05.240Z,27.65
2023-04-18T23:01:32.984Z,27.95
2023-04-18T23:04:00.953Z,25.05
2023-04-18T23:06:30.039Z,27.95
2023-04-18T23:08:59.004Z,26.85
2023-04-18T23:11:26.916Z,26.20
2023-04-18T23:13:54.529Z,30.15
2023-04-18T23:16:23.068Z,24.30
2023-04-18T23:18:51.118Z,25.08
2023-04-18T23:21:18.734Z,24.05
2023-04-18T23:23:48.025Z,29.75
2023-04-18T23:26:17.122Z,24.45
2023-04-18T23:28:44.865Z,26.23
2023-04-18T23:31:12.721Z,25.52
2023-04-18T23:33:40.376Z,27.15
2023-04-18T23:36:08.483Z,33.58
2023-04-18T23:38:37.260Z,29.60
2023-04-18T23:41:04.914Z,28.60
2023-04-18T23:43:34.247Z,25.98
2023-04-18T23:46:01.962Z,33.88
2023-04-18T23:48:29.553Z,23.63
2023-04-18T23:50:57.223Z,33.67
2023-04-18T23:53:24.897Z,29.35
2023-04-18T23:55:54.044Z,29.75
2023-04-18T23:58:21.750Z,32.58
